Time;durP1;ratioP1;P1;durP2;ratioP2;P2;SDS_P1;SDS_P2;PMS_P1;PMS_P2;Temp;Humidity;BMP_temperature;BMP_pressure;BME280_temperature;BME280_humidity;BME280_pressure;Samples;Min_cycle;Max_cycle;Signal;HPM_P1;HPM_P2
2021/09/16 00:02:43;;;;;;;6.00;4.32;;;;;;;18.65;100.00;96157.06;5198831;57;20195;-74
2021/09/16 00:07:46;;;;;;;7.63;4.38;;;;;;;18.59;100.00;96147.94;5189211;57;20224;-75
2021/09/16 00:12:48;;;;;;;7.63;4.22;;;;;;;18.56;100.00;96158.16;5193931;57;20115;-75
2021/09/16 00:17:51;;;;;;;4.60;3.95;;;;;;;18.50;100.00;96145.44;5198136;57;20128;-76
2021/09/16 00:22:53;;;;;;;5.38;4.15;;;;;;;18.52;100.00;96145.72;5194888;57;20149;-79
2021/09/16 00:27:55;;;;;;;5.25;3.80;;;;;;;18.48;100.00;96151.56;5196653;57;20133;-75
2021/09/16 00:32:58;;;;;;;9.15;3.67;;;;;;;18.50;100.00;96151.06;5198503;57;20142;-77
2021/09/16 00:38:00;;;;;;;3.65;3.28;;;;;;;18.45;100.00;96151.88;5201416;57;20126;-75
2021/09/16 00:43:03;;;;;;;7.28;3.63;;;;;;;18.48;100.00;96142.41;5201620;57;20124;-75
2021/09/16 00:48:05;;;;;;;4.32;3.17;;;;;;;18.47;100.00;96135.31;5198482;57;20647;-76
2021/09/16 00:53:09;;;;;;;3.42;3.13;;;;;;;18.48;100.00;96128.44;5196512;57;20765;-74
2021/09/16 00:58:12;;;;;;;6.72;3.33;;;;;;;18.49;100.00;96127.16;5195499;57;20128;-76
2021/09/16 01:03:14;;;;;;;3.95;3.00;;;;;;;18.49;100.00;96136.31;5184331;57;20115;-75
2021/09/16 01:08:18;;;;;;;3.65;3.00;;;;;;;18.44;100.00;96130.72;5185503;57;20125;-76
2021/09/16 01:13:21;;;;;;;4.10;2.88;;;;;;;18.32;100.00;96146.81;5169381;57;20235;-76
2021/09/16 01:18:23;;;;;;;4.85;3.03;;;;;;;18.22;100.00;96144.84;5166734;57;20133;-75
2021/09/16 01:23:26;;;;;;;4.88;2.78;;;;;;;18.16;100.00;96142.06;5175413;57;20593;-78
2021/09/16 01:28:28;;;;;;;3.08;2.70;;;;;;;18.09;100.00;96150.25;5186125;57;20273;-75
2021/09/16 01:33:31;;;;;;;6.43;2.88;;;;;;;18.06;100.00;96154.84;5186069;57;20120;-76
2021/09/16 01:38:33;;;;;;;4.85;2.95;;;;;;;18.07;100.00;96152.81;5185974;57;20234;-76
2021/09/16 01:43:35;;;;;;;5.00;3.00;;;;;;;18.09;100.00;96144.69;5187662;57;20119;-76
2021/09/16 01:48:38;;;;;;;6.30;2.70;;;;;;;18.08;100.00;96149.50;5185399;57;20138;-77
2021/09/16 01:53:41;;;;;;;3.60;2.70;;;;;;;18.06;100.00;96135.28;5174882;57;20683;-75
2021/09/16 01:58:43;;;;;;;7.40;2.92;;;;;;;17.88;100.00;96127.50;5185975;57;20124;-78
2021/09/16 02:03:46;;;;;;;3.38;2.58;;;;;;;17.78;100.00;96129.03;5192674;57;20137;-75
2021/09/16 02:08:49;;;;;;;4.10;2.65;;;;;;;17.73;100.00;96127.06;5191566;57;20128;-76
2021/09/16 02:13:51;;;;;;;2.75;2.50;;;;;;;17.57;100.00;96122.28;5195017;57;20120;-75
2021/09/16 02:18:54;;;;;;;3.47;2.45;;;;;;;17.41;100.00;96125.84;5192791;57;20138;-75
2021/09/16 02:23:56;;;;;;;2.70;2.50;;;;;;;17.26;100.00;96109.38;5192439;57;20128;-75
2021/09/16 02:28:58;;;;;;;4.35;2.50;;;;;;;17.19;100.00;96110.66;5198189;57;20124;-75
2021/09/16 02:34:01;;;;;;;3.53;2.53;;;;;;;17.08;100.00;96115.50;5197894;57;20657;-75
2021/09/16 02:39:03;;;;;;;5.32;2.80;;;;;;;17.10;100.00;96119.31;5197007;57;20150;-76
2021/09/16 02:44:11;;;;;;;3.00;2.70;;;;;;;17.06;100.00;96102.06;5186967;57;20111;-76
2021/09/16 02:49:21;;;;;;;9.25;2.97;;;;;;;17.14;100.00;96108.63;5198377;57;20218;-76
2021/09/16 02:54:23;;;;;;;2.70;2.47;;;;;;;17.23;100.00;96129.19;5194466;57;20136;-76
2021/09/16 02:59:39;;;;;;;8.93;5.70;;;;;;;17.28;100.00;96129.19;5197785;57;20137;-76
2021/09/16 03:04:41;;;;;;;6.40;4.50;;;;;;;17.23;100.00;96118.03;5192412;57;20126;-77
2021/09/16 03:09:43;;;;;;;3.10;2.85;;;;;;;17.30;100.00;96125.88;5200289;57;20093;-76
2021/09/16 03:14:46;;;;;;;3.33;2.97;;;;;;;17.14;100.00;96111.44;5202714;57;20202;-76
2021/09/16 03:19:56;;;;;;;4.57;2.58;;;;;;;17.04;100.00;96110.19;5203982;57;20203;-76
2021/09/16 03:24:58;;;;;;;4.20;2.78;;;;;;;17.08;100.00;96107.91;5199018;57;20644;-76
2021/09/16 03:30:02;;;;;;;8.15;2.80;;;;;;;17.20;100.00;96108.66;5195547;57;20111;-76
2021/09/16 03:35:05;;;;;;;5.28;2.85;;;;;;;17.37;100.00;96114.19;5189239;57;20115;-76
2021/09/16 03:40:08;;;;;;;4.30;2.33;;;;;;;17.22;100.00;96114.47;5197272;57;20157;-77
2021/09/16 03:45:11;;;;;;;6.20;2.45;;;;;;;17.34;100.00;96126.38;5199308;57;20119;-77
2021/09/16 03:50:14;;;;;;;4.45;2.65;;;;;;;17.40;100.00;96107.56;5188650;57;20133;-77
2021/09/16 03:55:16;;;;;;;6.25;2.95;;;;;;;17.40;100.00;96101.97;5184621;57;20230;-77
2021/09/16 04:00:19;;;;;;;5.32;2.88;;;;;;;17.40;100.00;96113.91;5194576;57;20137;-77
2021/09/16 04:05:21;;;;;;;3.28;2.67;;;;;;;17.44;100.00;96113.63;5194725;57;20132;-76
2021/09/16 04:10:24;;;;;;;7.63;3.20;;;;;;;17.42;100.00;96105.00;5192924;57;20161;-75
2021/09/16 04:15:26;;;;;;;5.75;2.80;;;;;;;17.41;100.00;96107.06;5199498;57;20123;-76
2021/09/16 04:20:29;;;;;;;4.78;3.17;;;;;;;17.37;100.00;96106.56;5201576;57;22765;-76
2021/09/16 04:25:32;;;;;;;6.82;3.08;;;;;;;17.29;100.00;96096.44;5196824;57;20132;-76
2021/09/16 04:30:35;;;;;;;5.22;3.10;;;;;;;17.12;100.00;96097.22;5189185;57;20124;-76
2021/09/16 04:35:37;;;;;;;2.90;2.63;;;;;;;17.14;100.00;96091.88;5188989;57;20692;-75
2021/09/16 04:40:39;;;;;;;4.95;3.13;;;;;;;16.96;100.00;96102.84;5200530;57;20602;-76
2021/09/16 04:45:42;;;;;;;8.40;2.90;;;;;;;17.01;100.00;96099.28;5191160;57;20110;-75
2021/09/16 04:50:44;;;;;;;5.82;2.88;;;;;;;17.03;100.00;96089.13;5198014;57;20124;-76
2021/09/16 04:55:47;;;;;;;3.63;3.10;;;;;;;17.04;100.00;96096.25;5199008;57;20216;-78
2021/09/16 05:00:49;;;;;;;6.75;2.97;;;;;;;17.16;100.00;96103.31;5190181;57;20314;-75
2021/09/16 05:05:52;;;;;;;2.70;2.50;;;;;;;17.15;100.00;96110.19;5189883;57;20132;-76
2021/09/16 05:10:54;;;;;;;3.20;2.83;;;;;;;17.14;100.00;96096.72;5194457;56;20094;-77
2021/09/16 05:15:57;;;;;;;3.47;2.60;;;;;;;17.21;100.00;96102.53;5201441;57;20123;-78
2021/09/16 05:20:59;;;;;;;5.97;2.70;;;;;;;17.28;100.00;96117.28;5192426;57;20110;-75
2021/09/16 05:26:02;;;;;;;4.55;2.50;;;;;;;17.36;100.00;96119.00;5200396;57;20653;-76
2021/09/16 05:31:04;;;;;;;3.00;2.60;;;;;;;17.43;100.00;96112.13;5201371;57;20128;-75
2021/09/16 05:36:07;;;;;;;3.08;2.78;;;;;;;17.45;100.00;96129.13;5200685;57;20153;-76
2021/09/16 05:41:11;;;;;;;4.65;2.90;;;;;;;17.47;100.00;96118.97;5193941;57;20115;-76
2021/09/16 05:46:32;;;;;;;4.78;2.63;;;;;;;17.53;100.00;96121.78;5203777;57;20102;-77
2021/09/16 05:51:48;;;;;;;7.95;2.75;;;;;;;17.57;100.00;96130.66;5177601;57;20905;-75
2021/09/16 05:56:50;;;;;;;5.38;2.70;;;;;;;17.72;100.00;96143.06;5175402;57;20663;-77
2021/09/16 06:01:53;;;;;;;3.08;2.70;;;;;;;17.81;100.00;96153.19;5190902;57;20634;-75
2021/09/16 06:06:55;;;;;;;5.95;3.40;;;;;;;17.86;100.00;96150.38;5189881;57;20133;-76
2021/09/16 06:11:59;;;;;;;6.28;3.10;;;;;;;17.96;100.00;96150.81;5189036;57;20120;-76
2021/09/16 06:17:03;;;;;;;4.85;2.67;;;;;;;18.05;100.00;96138.59;5186571;57;20138;-76
2021/09/16 06:22:05;;;;;;;5.85;3.00;;;;;;;18.18;100.00;96152.75;5189208;57;20592;-75
2021/09/16 06:27:08;;;;;;;4.95;2.80;;;;;;;18.48;100.00;96148.00;5194983;57;20138;-77
2021/09/16 06:32:11;;;;;;;4.13;2.75;;;;;;;18.70;100.00;96153.47;5195548;57;20123;-77
2021/09/16 06:37:13;;;;;;;10.23;3.03;;;;;;;18.86;100.00;96166.56;5199086;57;20158;-78
2021/09/16 06:42:16;;;;;;;6.03;2.92;;;;;;;18.97;99.69;96165.75;5200136;57;20118;-77
2021/09/16 06:47:18;;;;;;;6.47;3.58;;;;;;;19.14;99.68;96163.53;5214580;57;20137;-75
2021/09/16 06:52:22;;;;;;;11.70;3.85;;;;;;;19.34;100.00;96149.84;5216474;56;20118;-76
2021/09/16 06:57:25;;;;;;;9.32;4.22;;;;;;;19.98;95.79;96127.75;5216696;56;20111;-77
2021/09/16 07:02:27;;;;;;;8.82;3.72;;;;;;;19.98;96.04;96142.53;5202166;57;20124;-79
2021/09/16 07:07:30;;;;;;;5.55;3.80;;;;;;;19.93;96.60;96146.16;5181921;57;20119;-77
2021/09/16 07:12:33;;;;;;;8.30;3.97;;;;;;;19.77;98.76;96161.13;5184836;57;20128;-75
2021/09/16 07:17:35;;;;;;;6.47;4.40;;;;;;;20.03;96.93;96169.75;5183935;57;20141;-79
2021/09/16 07:22:38;;;;;;;7.93;4.28;;;;;;;20.43;96.44;96148.31;5192285;57;20210;-76
2021/09/16 07:27:41;;;;;;;7.90;4.70;;;;;;;20.64;94.06;96157.72;5189236;57;20151;-78
2021/09/16 07:32:43;;;;;;;12.35;4.45;;;;;;;21.23;92.36;96173.41;5183570;57;20155;-78
2021/09/16 07:37:45;;;;;;;5.90;4.25;;;;;;;21.35;88.33;96182.38;5189074;57;20120;-77
2021/09/16 07:42:48;;;;;;;7.90;4.68;;;;;;;21.53;91.63;96169.56;5189733;57;20110;-75
2021/09/16 07:47:50;;;;;;;5.82;4.22;;;;;;;21.61;89.47;96167.63;5192247;57;20111;-76
2021/09/16 07:52:53;;;;;;;4.28;3.47;;;;;;;21.74;85.77;96174.00;5202903;57;20700;-77
2021/09/16 07:57:55;;;;;;;3.30;3.00;;;;;;;21.29;89.89;96170.50;5184930;57;20119;-78
2021/09/16 08:02:58;;;;;;;5.47;3.47;;;;;;;21.78;87.86;96170.88;5192062;57;20672;-76
2021/09/16 08:08:03;;;;;;;5.82;3.08;;;;;;;21.83;84.82;96170.00;5182497;57;20111;-77
2021/09/16 08:13:06;;;;;;;6.45;3.03;;;;;;;21.92;83.84;96158.34;5175160;56;20228;-80
2021/09/16 08:18:08;;;;;;;6.90;3.22;;;;;;;21.65;85.47;96177.25;5176596;57;20178;-76
2021/09/16 08:23:11;;;;;;;5.55;3.78;;;;;;;21.68;87.56;96181.81;5190234;57;20120;-77
2021/09/16 08:28:13;;;;;;;6.97;4.10;;;;;;;21.30;89.99;96181.19;5185185;57;20160;-78
2021/09/16 08:33:16;;;;;;;5.10;3.97;;;;;;;20.97;90.91;96178.13;5190288;57;20094;-75
2021/09/16 08:38:18;;;;;;;6.93;4.18;;;;;;;21.09;90.12;96183.09;5188044;57;20124;-79
2021/09/16 08:43:27;;;;;;;5.05;3.97;;;;;;;21.26;90.00;96179.97;5189223;57;20119;-78
2021/09/16 08:48:30;;;;;;;6.53;4.35;;;;;;;21.60;90.26;96183.72;5189043;57;20115;-78
2021/09/16 08:53:33;;;;;;;7.63;4.55;;;;;;;21.87;86.49;96182.47;5188318;57;20115;-77
2021/09/16 08:58:37;;;;;;;6.57;4.68;;;;;;;21.95;87.71;96179.78;5194149;57;20215;-77
2021/09/16 09:03:40;;;;;;;8.75;5.10;;;;;;;21.90;88.81;96175.00;5181057;57;20119;-76
2021/09/16 09:08:42;;;;;;;11.70;4.13;;;;;;;22.12;89.52;96172.50;5196355;57;20120;-77
2021/09/16 09:13:56;;;;;;;6.18;3.80;;;;;;;22.17;88.19;96176.50;5188304;57;20128;-78
2021/09/16 09:18:59;;;;;;;6.82;4.68;;;;;;;22.23;89.54;96165.88;5189682;57;20132;-76
2021/09/16 09:24:01;;;;;;;5.60;4.15;;;;;;;23.03;85.20;96172.81;5190322;57;20119;-77
2021/09/16 09:29:07;;;;;;;6.85;3.90;;;;;;;23.27;83.98;96170.41;5192881;57;20224;-77
2021/09/16 09:34:40;;;;;;;4.93;3.70;;;;;;;23.12;86.99;96169.53;5199751;57;20115;-78
2021/09/16 09:39:45;;;;;;;6.93;3.72;;;;;;;22.99;84.98;96175.22;5186825;57;20137;-78
2021/09/16 09:44:48;;;;;;;3.83;2.70;;;;;;;23.12;79.35;96161.06;5186534;57;20120;-77
2021/09/16 09:49:57;;;;;;;4.75;3.40;;;;;;;23.27;79.46;96164.03;5187851;57;20107;-79
2021/09/16 09:55:11;;;;;;;7.88;2.90;;;;;;;22.39;83.56;96156.31;5188255;57;20115;-80
2021/09/16 10:00:16;;;;;;;4.13;3.10;;;;;;;22.25;83.19;96154.84;5185712;57;20129;-77
2021/09/16 10:05:24;;;;;;;7.53;2.78;;;;;;;22.08;86.71;96155.19;5222533;45;20693;-77
2021/09/16 10:10:34;;;;;;;3.78;2.65;;;;;;;22.29;85.49;96154.50;5221548;56;20118;-77
2021/09/16 10:15:36;;;;;;;4.82;2.88;;;;;;;22.29;85.32;96144.03;5212305;56;20902;-77
2021/09/16 10:20:39;;;;;;;2.90;2.55;;;;;;;22.78;80.35;96147.78;5223989;56;20191;-78
2021/09/16 10:25:47;;;;;;;2.97;2.45;;;;;;;23.72;77.34;96153.13;5231680;56;20140;-77
2021/09/16 10:30:53;;;;;;;4.32;2.40;;;;;;;24.13;71.29;96158.66;5229065;56;20694;-77
2021/09/16 10:35:59;;;;;;;3.72;2.80;;;;;;;23.53;76.18;96164.66;5224715;56;21074;-78
2021/09/16 10:41:18;;;;;;;3.38;3.08;;;;;;;22.99;78.59;96166.78;5222391;56;20198;-78
2021/09/16 10:46:26;;;;;;;8.85;4.32;;;;;;;22.84;81.73;96156.84;5224072;56;20636;-78
2021/09/16 10:51:37;;;;;;;5.45;3.28;;;;;;;22.95;77.76;96149.44;5224003;56;20681;-77
2021/09/16 10:56:39;;;;;;;3.35;3.10;;;;;;;23.11;79.52;96142.66;5224047;56;20591;-78
2021/09/16 11:01:51;;;;;;;5.45;3.60;;;;;;;23.33;79.72;96142.09;5223486;56;20126;-78
2021/09/16 11:06:54;;;;;;;7.25;3.95;;;;;;;23.62;77.57;96123.91;5223936;56;20118;-77
2021/09/16 11:12:03;;;;;;;3.08;2.83;;;;;;;24.31;74.40;96120.16;5223779;56;20117;-77
2021/09/16 11:17:09;;;;;;;6.45;3.13;;;;;;;23.36;78.08;96136.09;5223509;56;20113;-77
2021/09/16 11:22:12;;;;;;;6.32;3.10;;;;;;;22.80;80.08;96130.31;5220492;56;20205;-77
2021/09/16 11:27:23;;;;;;;6.30;3.70;;;;;;;22.53;81.47;96117.63;5211635;56;20600;-77
2021/09/16 11:32:35;;;;;;;3.90;3.22;;;;;;;22.34;83.24;96131.88;5216306;56;20109;-77
2021/09/16 11:37:50;;;;;;;4.90;3.75;;;;;;;22.32;82.63;96116.84;5214938;56;20122;-77
2021/09/16 11:43:04;;;;;;;6.95;3.30;;;;;;;22.75;81.93;96117.16;5213082;56;20136;-78
2021/09/16 11:48:22;;;;;;;6.45;2.97;;;;;;;22.87;80.80;96117.59;5219499;56;20117;-77
2021/09/16 11:53:28;;;;;;;6.32;3.20;;;;;;;22.90;81.58;96116.53;5222376;56;20118;-77
2021/09/16 11:58:36;;;;;;;5.68;3.05;;;;;;;23.58;76.53;96114.28;5224427;56;20612;-77
2021/09/16 12:03:43;;;;;;;8.18;3.30;;;;;;;23.28;80.49;96111.97;5221050;56;20114;-77
2021/09/16 12:08:51;;;;;;;4.03;3.00;;;;;;;23.91;75.19;96108.44;5216470;56;20113;-77
2021/09/16 12:13:59;;;;;;;4.47;3.10;;;;;;;23.96;77.37;96096.25;5220989;56;20118;-77
2021/09/16 12:19:07;;;;;;;3.83;3.07;;;;;;;24.35;74.67;96100.00;5222650;56;20130;-77
2021/09/16 12:24:20;;;;;;;6.45;3.70;;;;;;;25.20;73.25;96089.81;5219764;56;20117;-77
2021/09/16 12:29:24;;;;;;;4.50;3.28;;;;;;;24.98;71.31;96075.66;5221159;56;20153;-78
2021/09/16 12:34:38;;;;;;;3.28;2.90;;;;;;;24.81;70.79;96062.84;5221585;56;20760;-77
2021/09/16 12:39:49;;;;;;;5.10;2.97;;;;;;;24.92;67.51;96058.91;5206481;56;20591;-80
2021/09/16 12:44:52;;;;;;;7.07;3.25;;;;;;;26.12;68.20;96048.72;5222774;56;20122;-77
2021/09/16 12:49:54;;;;;;;4.72;2.70;;;;;;;26.46;65.12;96056.66;5221415;56;20114;-79
2021/09/16 12:55:03;;;;;;;4.78;2.63;;;;;;;27.33;64.35;96053.56;5221896;56;20140;-79
2021/09/16 13:00:08;;;;;;;3.70;2.60;;;;;;;25.71;64.32;96052.03;5222106;56;20658;-78
2021/09/16 13:05:18;;;;;;;4.80;2.72;;;;;;;24.80;67.50;96032.31;5219966;56;20695;-77
2021/09/16 13:10:24;;;;;;;4.85;2.45;;;;;;;23.97;71.01;96035.66;5222736;56;20228;-77
2021/09/16 13:15:27;;;;;;;4.22;2.42;;;;;;;23.10;80.15;96065.78;5218645;56;20232;-78
2021/09/16 13:20:29;;;;;;;8.80;2.92;;;;;;;21.19;88.14;96060.53;5219303;56;20140;-78
2021/09/16 13:25:32;;;;;;;4.60;2.78;;;;;;;21.06;91.99;96063.34;5220692;56;20126;-77
2021/09/16 13:30:35;;;;;;;3.03;2.13;;;;;;;20.79;92.72;96080.63;5218112;56;20113;-78
2021/09/16 13:35:38;;;;;;;6.78;2.45;;;;;;;21.08;90.51;96077.59;5233626;56;20569;-79
2021/09/16 13:40:42;;;;;;;2.88;1.95;;;;;;;21.15;91.47;96070.59;5223888;56;20649;-79
2021/09/16 13:45:44;;;;;;;2.42;2.15;;;;;;;21.14;91.44;96067.03;5222161;56;20122;-78
2021/09/16 13:50:46;;;;;;;5.50;2.38;;;;;;;20.82;91.50;96055.06;5214165;56;20118;-79
2021/09/16 13:55:49;;;;;;;8.68;2.03;;;;;;;21.02;92.80;96040.41;5224312;56;20122;-78
2021/09/16 14:00:51;;;;;;;3.80;1.98;;;;;;;21.17;94.05;96035.03;5223672;56;20244;-79
2021/09/16 14:05:54;;;;;;;4.97;1.77;;;;;;;21.78;89.35;96045.03;5221933;56;20122;-79
2021/09/16 14:10:58;;;;;;;3.22;2.08;;;;;;;21.48;90.21;96063.59;5220632;56;20765;-78
2021/09/16 14:16:01;;;;;;;2.95;1.80;;;;;;;21.87;87.67;96052.31;5218111;56;20114;-78
2021/09/16 14:21:03;;;;;;;4.53;2.10;;;;;;;21.72;89.44;96055.66;5225542;56;20127;-79
2021/09/16 14:26:06;;;;;;;1.65;1.50;;;;;;;21.86;89.57;96053.63;5225665;56;20127;-78
2021/09/16 14:31:08;;;;;;;1.80;1.70;;;;;;;22.22;85.49;96068.69;5227696;56;20113;-78
2021/09/16 14:36:17;;;;;;;3.97;1.70;;;;;;;21.98;86.18;96064.06;5237826;56;20118;-78
2021/09/16 14:41:19;;;;;;;3.78;1.60;;;;;;;20.82;91.53;96062.72;5233860;56;20626;-78
2021/09/16 14:46:22;;;;;;;3.53;1.65;;;;;;;21.04;90.81;96063.13;5225298;56;20592;-79
2021/09/16 14:51:24;;;;;;;2.20;1.90;;;;;;;20.74;94.18;96057.75;5213574;56;20769;-77
2021/09/16 14:56:27;;;;;;;1.35;1.15;;;;;;;20.06;90.87;96066.19;5221331;56;20122;-77
2021/09/16 15:01:30;;;;;;;1.40;1.23;;;;;;;20.16;91.29;96076.50;5222211;56;20113;-79
2021/09/16 15:06:32;;;;;;;3.10;1.30;;;;;;;20.11;93.71;96080.13;5222632;56;20136;-77
2021/09/16 15:11:35;;;;;;;1.33;1.33;;;;;;;19.95;93.66;96073.47;5220329;56;20114;-78
2021/09/16 15:16:37;;;;;;;1.33;1.23;;;;;;;20.15;93.95;96077.03;5225502;56;20127;-78
2021/09/16 15:21:40;;;;;;;1.08;1.08;;;;;;;19.95;94.09;96076.25;5227403;56;20135;-78
2021/09/16 15:26:43;;;;;;;1.85;1.50;;;;;;;19.76;95.70;96066.34;5224483;56;20617;-78
2021/09/16 15:31:45;;;;;;;1.60;1.50;;;;;;;19.91;96.61;96055.44;5222694;56;20706;-79
2021/09/16 15:37:00;;;;;;;1.50;1.40;;;;;;;19.92;96.92;96056.94;5220502;56;20201;-75
2021/09/16 15:42:03;;;;;;;2.20;1.85;;;;;;;20.00;96.23;96055.81;5208030;56;20186;-75
2021/09/16 15:47:07;;;;;;;3.53;1.90;;;;;;;19.95;95.99;96061.47;5210848;56;20550;-75
2021/09/16 15:52:10;;;;;;;2.88;2.20;;;;;;;19.64;98.28;96059.34;5217962;56;20609;-75
2021/09/16 15:57:13;;;;;;;2.05;1.95;;;;;;;20.03;97.47;96065.97;5218891;56;20117;-75
2021/09/16 16:02:15;;;;;;;3.53;1.67;;;;;;;20.03;96.66;96059.59;5211742;56;20667;-75
2021/09/16 16:07:18;;;;;;;1.60;1.50;;;;;;;19.47;97.75;96084.03;5214759;45;20132;-77
2021/09/16 16:12:20;;;;;;;1.88;1.77;;;;;;;19.30;99.67;96092.59;5179893;57;20110;-78
2021/09/16 16:17:23;;;;;;;3.78;3.47;;;;;;;18.97;100.00;96099.28;5169433;57;20124;-77
2021/09/16 16:22:25;;;;;;;5.15;4.65;;;;;;;18.68;100.00;96110.50;5177940;57;20146;-79
2021/09/16 16:27:28;;;;;;;5.75;5.15;;;;;;;18.73;100.00;96118.06;5184230;57;20567;-77
2021/09/16 16:32:30;;;;;;;5.93;5.35;;;;;;;18.52;100.00;96101.69;5183575;57;20133;-78
2021/09/16 16:37:34;;;;;;;8.38;6.70;;;;;;;18.45;100.00;96112.69;5175688;57;20223;-76
2021/09/16 16:42:37;;;;;;;6.85;6.15;;;;;;;18.23;100.00;96124.75;5185374;57;20137;-77
2021/09/16 16:47:42;;;;;;;8.65;6.03;;;;;;;18.26;100.00;96126.50;5185647;57;20133;-80
2021/09/16 16:52:47;;;;;;;7.85;6.82;;;;;;;18.13;100.00;96134.75;5183875;57;20120;-76
2021/09/16 16:57:49;;;;;;;7.40;6.60;;;;;;;18.11;100.00;96126.09;5183944;57;20760;-80
2021/09/16 17:02:52;;;;;;;7.72;6.38;;;;;;;17.97;98.81;96134.81;5179857;57;20115;-77
2021/09/16 17:08:02;;;;;;;7.90;4.85;;;;;;;18.00;98.68;96136.59;5167168;57;20106;-77
2021/09/16 17:13:04;;;;;;;6.45;5.63;;;;;;;17.95;100.00;96140.16;5174582;57;20107;-78
2021/09/16 17:18:07;;;;;;;8.68;5.85;;;;;;;17.86;99.66;96146.81;5182210;57;20176;-76
2021/09/16 17:23:10;;;;;;;5.80;4.88;;;;;;;17.74;100.00;96151.69;5181366;57;20128;-77
2021/09/16 17:28:12;;;;;;;8.63;6.20;;;;;;;17.65;100.00;96154.75;5180668;57;20576;-77
2021/09/16 17:33:15;;;;;;;8.20;6.28;;;;;;;17.68;100.00;96158.56;5183356;57;20120;-77
2021/09/16 17:38:18;;;;;;;9.45;6.75;;;;;;;17.56;100.00;96155.03;5180919;57;20129;-77
2021/09/16 17:43:20;;;;;;;7.22;5.57;;;;;;;17.65;100.00;96163.16;5180989;57;20211;-78
2021/09/16 17:48:23;;;;;;;8.95;6.65;;;;;;;17.50;100.00;96164.69;5184347;57;20128;-75
2021/09/16 17:53:25;;;;;;;9.43;6.43;;;;;;;17.58;100.00;96166.47;5169311;57;20221;-80
2021/09/16 17:58:28;;;;;;;12.05;5.82;;;;;;;17.69;100.00;96168.47;5179101;57;20124;-76
2021/09/16 18:03:31;;;;;;;7.60;6.07;;;;;;;17.52;100.00;96181.72;5182121;57;20726;-78
2021/09/16 18:08:33;;;;;;;6.63;5.93;;;;;;;17.50;100.00;96185.00;5179175;57;20120;-77
2021/09/16 18:13:35;;;;;;;9.70;6.43;;;;;;;17.44;100.00;96181.44;5184603;57;20094;-76
2021/09/16 18:18:38;;;;;;;11.07;7.45;;;;;;;17.39;100.00;96185.00;5188734;57;20120;-77
2021/09/16 18:23:44;;;;;;;9.23;6.50;;;;;;;17.52;100.00;96192.91;5184150;57;20146;-79
2021/09/16 18:28:47;;;;;;;7.88;7.07;;;;;;;17.38;100.00;96199.50;5180961;57;20144;-74
2021/09/16 18:33:50;;;;;;;11.45;7.50;;;;;;;17.26;100.00;96209.16;5180673;57;20129;-73
2021/09/16 18:38:53;;;;;;;13.27;7.65;;;;;;;17.20;100.00;96218.31;5180746;57;20168;-77
2021/09/16 18:43:56;;;;;;;11.07;8.00;;;;;;;17.06;99.24;96224.91;5177754;57;20138;-74
2021/09/16 18:48:58;;;;;;;11.50;8.52;;;;;;;17.03;99.38;96214.75;5177190;57;20219;-76
2021/09/16 18:54:01;;;;;;;11.57;8.98;;;;;;;16.72;96.64;96231.72;5179901;57;20597;-76
2021/09/16 18:59:03;;;;;;;12.10;7.22;;;;;;;16.73;97.82;96232.50;5176510;57;20144;-77
2021/09/16 19:04:06;;;;;;;11.57;7.85;;;;;;;16.55;97.32;96233.75;5171549;57;20124;-74
2021/09/16 19:09:09;;;;;;;12.20;8.10;;;;;;;16.49;98.93;96238.50;5182551;57;20111;-77
2021/09/16 19:14:11;;;;;;;12.32;8.10;;;;;;;16.58;99.69;96243.88;5189407;57;20093;-77
2021/09/16 19:19:14;;;;;;;11.95;7.97;;;;;;;16.52;100.00;96247.91;5194461;57;20115;-75
2021/09/16 19:24:16;;;;;;;17.25;9.15;;;;;;;16.55;100.00;96258.84;5188784;57;20674;-75
2021/09/16 19:29:38;;;;;;;16.63;9.10;;;;;;;16.43;100.00;96263.59;5178087;57;20129;-75
2021/09/16 19:34:42;;;;;;;17.50;9.40;;;;;;;16.43;100.00;96273.97;5187865;57;20129;-74
2021/09/16 19:39:44;;;;;;;15.35;8.65;;;;;;;16.35;99.90;96265.31;5177899;57;20119;-74
2021/09/16 19:44:47;;;;;;;11.70;8.13;;;;;;;16.43;98.07;96274.75;5183573;57;20138;-73
2021/09/16 19:49:49;;;;;;;10.32;7.60;;;;;;;16.46;97.11;96267.41;5180813;57;20133;-75
2021/09/16 19:54:52;;;;;;;13.73;8.20;;;;;;;16.32;97.08;96265.59;5188430;57;20089;-72
2021/09/16 19:59:54;;;;;;;12.07;8.13;;;;;;;16.37;97.20;96267.63;5180583;57;20828;-74
2021/09/16 20:04:57;;;;;;;12.15;7.95;;;;;;;16.33;96.69;96265.06;5175172;57;20183;-74
2021/09/16 20:09:59;;;;;;;11.32;7.78;;;;;;;16.43;97.24;96265.63;5177636;57;20207;-74
2021/09/16 20:15:03;;;;;;;13.13;7.57;;;;;;;16.46;97.21;96270.94;5175279;57;20219;-75
2021/09/16 20:20:08;;;;;;;12.70;8.48;;;;;;;16.47;96.18;96257.75;5175220;57;20115;-73
2021/09/16 20:25:12;;;;;;;13.57;7.90;;;;;;;16.31;94.20;96278.75;5176661;57;20115;-73
2021/09/16 20:30:15;;;;;;;11.05;8.05;;;;;;;16.29;93.88;96267.34;5181323;57;20859;-72
2021/09/16 20:35:17;;;;;;;12.95;8.30;;;;;;;16.25;93.36;96264.03;5183064;57;20136;-71
2021/09/16 20:40:20;;;;;;;11.95;8.18;;;;;;;16.23;94.30;96260.22;5185788;57;20111;-76
2021/09/16 20:45:22;;;;;;;9.70;7.45;;;;;;;16.19;94.63;96271.59;5185534;57;20133;-74
2021/09/16 20:50:25;;;;;;;11.48;7.82;;;;;;;16.24;93.68;96264.53;5184066;57;20115;-77
2021/09/16 20:55:28;;;;;;;10.88;8.13;;;;;;;16.21;93.28;96274.69;5187884;57;20656;-73
2021/09/16 21:00:30;;;;;;;8.40;7.03;;;;;;;16.27;93.15;96277.47;5179859;57;20687;-76
2021/09/16 21:05:32;;;;;;;12.05;8.30;;;;;;;16.01;93.70;96279.66;5186003;57;20120;-73
2021/09/16 21:10:37;;;;;;;11.32;7.82;;;;;;;16.07;92.78;96277.63;5187366;57;20115;-74
2021/09/16 21:15:39;;;;;;;17.40;8.18;;;;;;;16.12;92.64;96276.91;5191560;57;20132;-76
2021/09/16 21:20:42;;;;;;;11.90;7.72;;;;;;;16.06;92.46;96292.81;5190675;57;20115;-76
2021/09/16 21:25:44;;;;;;;11.25;8.20;;;;;;;16.05;91.05;96289.28;5185998;57;20115;-75
2021/09/16 21:30:47;;;;;;;10.52;7.03;;;;;;;16.21;92.05;96299.78;5188355;57;20233;-74
2021/09/16 21:35:49;;;;;;;12.95;8.10;;;;;;;16.05;91.12;96302.47;5182303;57;20278;-74
2021/09/16 21:40:52;;;;;;;11.38;7.70;;;;;;;15.91;90.54;96300.59;5185784;57;20128;-75
2021/09/16 21:45:55;;;;;;;11.10;7.32;;;;;;;15.74;91.77;96297.72;5187336;57;20124;-77
2021/09/16 21:50:57;;;;;;;10.88;7.00;;;;;;;15.65;91.49;96303.47;5185958;57;20308;-75
2021/09/16 21:56:00;;;;;;;12.90;7.78;;;;;;;15.53;91.46;96296.31;5186023;57;20124;-74
2021/09/16 22:01:03;;;;;;;10.18;7.85;;;;;;;15.49;92.28;96293.75;5183100;57;20120;-75
2021/09/16 22:06:05;;;;;;;12.02;7.63;;;;;;;15.60;91.30;96301.44;5192889;57;20120;-74
2021/09/16 22:11:09;;;;;;;12.18;6.88;;;;;;;15.54;91.83;96295.03;5196513;57;20120;-74
2021/09/16 22:16:12;;;;;;;14.50;7.35;;;;;;;15.64;91.33;96290.81;5187001;57;20229;-75
2021/09/16 22:21:15;;;;;;;8.95;6.30;;;;;;;15.63;91.01;96284.47;5195699;57;20279;-73
2021/09/16 22:26:18;;;;;;;7.88;6.03;;;;;;;15.44;92.15;96286.13;5197108;57;20291;-75
2021/09/16 22:31:20;;;;;;;12.70;6.85;;;;;;;15.42;91.74;96285.84;5202924;57;20110;-75
2021/09/16 22:36:23;;;;;;;9.52;6.65;;;;;;;15.46;91.29;96288.41;5202209;57;20103;-75
2021/09/16 22:41:25;;;;;;;9.10;6.22;;;;;;;15.32;90.83;96300.41;5200354;57;20129;-75
2021/09/16 22:46:28;;;;;;;11.68;6.30;;;;;;;15.37;90.43;96308.81;5197845;57;20124;-76
2021/09/16 22:51:31;;;;;;;6.60;5.55;;;;;;;15.37;90.72;96313.63;5199443;57;20128;-75
2021/09/16 22:56:34;;;;;;;8.65;5.60;;;;;;;15.31;91.20;96316.34;5198873;57;20125;-73
2021/09/16 23:01:38;;;;;;;11.20;6.57;;;;;;;15.11;92.26;96312.91;5199832;57;20111;-75
2021/09/16 23:06:41;;;;;;;15.48;6.75;;;;;;;14.89;94.26;96317.00;5198404;57;20106;-75
2021/09/16 23:11:44;;;;;;;9.52;6.72;;;;;;;14.68;95.59;96309.94;5200409;57;20269;-74
2021/09/16 23:16:46;;;;;;;7.30;6.05;;;;;;;14.56;95.91;96313.88;5198164;57;20115;-75
2021/09/16 23:21:49;;;;;;;10.65;6.40;;;;;;;14.48;95.61;96309.19;5200234;57;20124;-75
2021/09/16 23:26:51;;;;;;;9.80;6.57;;;;;;;14.40;95.79;96316.44;5197483;57;20120;-75
2021/09/16 23:31:53;;;;;;;8.95;6.32;;;;;;;14.24;96.21;96315.72;5195419;57;20123;-75
2021/09/16 23:36:56;;;;;;;10.50;7.00;;;;;;;14.14;96.98;96317.09;5198837;57;20124;-75
2021/09/16 23:41:58;;;;;;;7.82;6.35;;;;;;;14.22;96.08;96312.66;5198140;57;20129;-76